Wesley A — WDE2433 — position and weather

sailwx.info

Track history (hours):
 
Tides and Currents Weather Stations Pressure Air Temp Water Temp Dewpoint Dewpoint Depression Visibility Wind Speed Wind Dir Waves Ship Positions

Wesley A

Owner: G & H Towing Company, Galveston, TX. More information available from US FCC via Universal Licensing System and Coast Guard Vessel Documentation Center.

Last reported at 2017-Nov-28 12:48 UTC. Time now 2017-Dec-17 10:05 UTC.
Position N 29°43' W 095°16'.
Warning: this ship's position is 18 days out of date.

Length 30 m; draft 6.4 m.

Type: Tug. MMSI: 367325130.

Date/timePositionNaut miles runAvg speedWind from/ knotsBaromVisibWave heightAir tempDewpointWater temp
2017-Nov-28 12:48N 29°43' W 095°16'0 0.0
2017-Nov-28 12:21N 29°43' W 095°16'0 0.0
2017-Nov-28 11:57N 29°43' W 095°16'0 0.1
2017-Nov-28 10:36N 29°44' W 095°16'0 0.0
2017-Nov-28 10:27N 29°44' W 095°16'0 0.0
2017-Nov-28 09:54N 29°44' W 095°16'0 0.0
2017-Nov-28 09:30N 29°44' W 095°16'0 0.0
2017-Nov-28 08:57N 29°44' W 095°16'0 0.0
2017-Nov-28 08:18N 29°44' W 095°16'0 0.0
2017-Nov-28 08:00N 29°44' W 095°16'3 6.3
2017-Nov-28 07:31N 29°44' W 095°13'3 6.4
2017-Nov-28 07:00N 29°44' W 095°09'4 7.9
2017-Nov-28 06:31N 29°46' W 095°05'4 8.5
2017-Nov-28 05:59N 29°43' W 095°01'4 8.6
2017-Nov-28 05:29N 29°39' W 094°58'  
2017-Nov-25 23:58N 29°19' W 094°48'6 0.4
2017-Nov-25 08:31N 29°23' W 094°53'  
Track history (hours):
 
Tides and Currents Weather Stations Pressure Air Temp Water Temp Dewpoint Dewpoint Depression Visibility Wind Speed Wind Dir Waves Ship Positions

Wesley A

Owner: G & H Towing Company, Galveston, TX. More information available from US FCC via Universal Licensing System and Coast Guard Vessel Documentation Center.

Last reported at 2017-Nov-28 12:48 UTC. Time now 2017-Dec-17 10:05 UTC.
Position N 29°43' W 095°16'.
Warning: this ship's position is 18 days out of date.

Length 30 m; draft 6.4 m.

Type: Tug. MMSI: 367325130.

Date/timePositionNaut miles runAvg speedWind from/ knotsBaromVisibWave heightAir tempDewpointWater temp
2017-Nov-28 12:48N 29°43' W 095°16'0 0.0
2017-Nov-28 12:21N 29°43' W 095°16'0 0.0
2017-Nov-28 11:57N 29°43' W 095°16'0 0.1
2017-Nov-28 10:36N 29°44' W 095°16'0 0.0
2017-Nov-28 10:27N 29°44' W 095°16'0 0.0
2017-Nov-28 09:54N 29°44' W 095°16'0 0.0
2017-Nov-28 09:30N 29°44' W 095°16'0 0.0
2017-Nov-28 08:57N 29°44' W 095°16'0 0.0
2017-Nov-28 08:18N 29°44' W 095°16'0 0.0
2017-Nov-28 08:00N 29°44' W 095°16'3 6.3
2017-Nov-28 07:31N 29°44' W 095°13'3 6.4
2017-Nov-28 07:00N 29°44' W 095°09'4 7.9
2017-Nov-28 06:31N 29°46' W 095°05'4 8.5
2017-Nov-28 05:59N 29°43' W 095°01'4 8.6
2017-Nov-28 05:29N 29°39' W 094°58'  
2017-Nov-25 23:58N 29°19' W 094°48'6 0.4
2017-Nov-25 08:31N 29°23' W 094°53'  

Dump ship's entire track history